Twin Lake, MI (49457)

7:09 AM EST on February 06, 2016 (GMT -0500)
Douglass Trail | | Change Station
CLOSE
Current Station
Personal Weather Station
Location: Twin Lake, MI
Elevation: 712 ft
Nearby Weather Stations

Elev 712 ft 43.38 °N, 86.19 °W | Updated 10 seconds ago

Overcast
Overcast
25.2 °F
Feels Like 25 °F
N
0.0
Wind Variable Wind from SW
Gusts 0.0 mph

Today
High -- | Low -- °F
--% Chance of Precip.
Yesterday
High -- | Low -- °F
Precip. -- in
Pressure 30.21 in
Visibility 10.0 miles
Clouds Scattered Clouds 4500 ft
Scattered Clouds 5000 ft
Overcast 10000 ft
Windchill 25 °F
Dew Point 20 °F
Humidity 79%
Rainfall 0.00 in
Snow Depth Not available.
7:55 AM 6:02 PM
Waning Crescent, 6% visible
METAR KFFX 061153Z AUTO 00000KT 10SM SCT045 SCT050 OVC100 M03/M06 A3021 RMK AO2 T10351059
Pressure 30.21 in
Visibility 10.0 miles
Clouds Scattered Clouds 4500 ft
Scattered Clouds 5000 ft
Overcast 10000 ft
Windchill 25 °F
Dew Point 20 °F
Humidity 79%
Rainfall 0.00 in
Snow Depth Not available.
7:55 AM 6:02 PM
Waning Crescent, 6% visible
METAR KFFX 061153Z AUTO 00000KT 10SM SCT045 SCT050 OVC100 M03/M06 A3021 RMK AO2 T10351059

10-Day Weather Forecast

Almanac

Astronomy

Feb. 06, 2016 Rise Set
Actual Time
Civil Twilight
Nautical Twilight
Astronomical Twilight
Moon
Length of Visible Light
Length of Day
Tomorrow will be .
, % of the Moon is Illuminated

Today's Extremes

State Highs State Lows

Community

WunderPhotos

Upload Photos

1,890,944 photos uploaded!

WunderBlog® & News

Nearby

Air Quality

  Air Quality AQ Index Pollutant
Not available.

Snow Depth

Station Depth Elevation

Earthquake Activity

City Distance Mag. Time & Date
Minimum magnitude displayed is 2.5.

Coastal Water Temperatures

Place Temperature

Stations

Nearby Weather Stations

Station Location Temp. Windchill Dew Point Humidity Wind Precip. Elev Updated Type
                   

Watches & Warnings

There are currently no watches in effect.